Leesburg, Texas
Current Conditions -  °F | °C
As of 8:35 AM on Saturday 25 Oct 2014 (Local Time) from KOSA Reporting Station
Clear Clear  
Wind Chill: 58°   Ceiling: Unl
Heat Index: 58°   Visibility: 5mi
Dew Point: 58°   Wind: 0mph
Humidity: 99%   Direction: NA
Pressure: 30.17"   Gusts: NA
Location:  32.99°N, 95.08°W
Report Text: KOSA 251335Z AUTO 00000KT 5SM CLR 15/14 A3017 RMK AO1 T01450144
Loading
Personal Weather Stations






























Interactive Weather Map
Tropical Storm Tracking
New forecast layout! Learn more

10-Day Weather Forecast

Advertisements
Track Severe Weather on mobile